Terminal Aerodrome Forecast
Issued by NWS Duluth, MN

Home | Current Version | Previous Version | Text Only | Print | Product List | Glossary On
Versions: 1 2 3 4 5 6 7 8 9 10 11 12 13 14 15 16 17 18 19 20 21 22 23 24 25 26 27 28 29 30 31 32
000
FTUS43 KDLH 251700
TAFINL
TAF
KINL 251729Z 2518/2618 27006KT 2SM -SN BR OVC007
     FM251900 29012KT 4SM -SN BR OVC010
     FM252100 32016G30KT 5SM -SN OVC020
     FM260500 34014G25KT P6SM OVC025
     FM260900 35012G20KT P6SM BKN030
     FM261500 36011KT P6SM SCT035=

USA.gov is the U.S. government's official web portal to all federal, state and local government web resources and services.